createdAt,value
2018-01-21T00:02:21.307Z,57.37
2018-01-21T00:04:48.867Z,64.67
2018-01-21T00:07:16.359Z,61.67
2018-01-21T00:09:43.883Z,52.97
2018-01-21T00:12:11.376Z,59.33
2018-01-21T00:14:38.900Z,60.33
2018-01-21T00:17:06.663Z,49.77
2018-01-21T00:19:34.122Z,52.40
2018-01-21T00:22:01.683Z,55.50
2018-01-21T00:24:29.239Z,56.17
2018-01-21T00:26:56.799Z,53.60
2018-01-21T00:29:24.357Z,55.13
2018-01-21T00:31:51.781Z,58.93
2018-01-21T00:34:19.478Z,54.77
2018-01-21T00:36:47.036Z,56.60
2018-01-21T00:39:14.596Z,58.80
2018-01-21T00:41:42.155Z,60.17
2018-01-21T00:44:09.560Z,67.13
2018-01-21T00:46:37.152Z,56.17
2018-01-21T00:49:04.775Z,64.63
2018-01-21T00:51:32.289Z,57.07
2018-01-21T00:53:59.850Z,65.33
2018-01-21T00:56:27.308Z,61.87
2018-01-21T00:58:54.868Z,57.83
2018-01-21T01:01:22.359Z,61.90
2018-01-21T01:03:49.883Z,57.27
2018-01-21T01:06:17.376Z,62.60
2018-01-21T01:08:44.833Z,59.13
2018-01-21T01:11:12.356Z,68.60
2018-01-21T01:13:39.915Z,65.37
2018-01-21T01:16:07.476Z,65.27
2018-01-21T01:18:34.886Z,61.23
2018-01-21T01:21:02.389Z,58.67
2018-01-21T01:23:29.884Z,62.57
2018-01-21T01:25:57.341Z,67.77
2018-01-21T01:28:25.066Z,62.43
2018-01-21T01:30:52.626Z,72.60
2018-01-21T01:33:20.037Z,67.77
2018-01-21T01:35:47.540Z,62.53
2018-01-21T01:38:15.100Z,66.77
2018-01-21T01:40:42.596Z,71.37
2018-01-21T01:43:10.117Z,73.77
2018-01-21T01:45:37.677Z,68.10
2018-01-21T01:48:05.440Z,66.40
2018-01-21T01:50:32.999Z,65.70
2018-01-21T01:53:00.559Z,73.90
2018-01-21T01:55:28.023Z,65.13
2018-01-21T01:57:55.577Z,73.07
2018-01-21T02:00:23.136Z,70.97
2018-01-21T02:02:50.694Z,68.73
2018-01-21T02:05:18.256Z,61.67
2018-01-21T02:07:45.814Z,66.40
2018-01-21T02:10:13.373Z,71.70
2018-01-21T02:12:40.932Z,76.93
2018-01-21T02:15:08.492Z,64.27
2018-01-21T02:17:35.983Z,68.20
2018-01-21T02:20:03.406Z,69.67
2018-01-21T02:22:30.964Z,67.93
2018-01-21T02:24:58.422Z,63.60
2018-01-21T02:27:25.980Z,66.40
2018-01-21T02:29:53.411Z,61.07
2018-01-21T02:32:20.900Z,63.57
2018-01-21T02:34:48.456Z,61.83
2018-01-21T02:37:16.014Z,59.07
2018-01-21T02:39:43.509Z,54.90
2018-01-21T02:42:11.031Z,61.43
2018-01-21T02:44:38.712Z,61.43
2018-01-21T02:47:06.120Z,57.20
2018-01-21T02:49:33.606Z,56.57
2018-01-21T02:52:01.101Z,58.10
2018-01-21T02:54:28.533Z,58.53
2018-01-21T02:56:56.081Z,54.93
2018-01-21T02:59:23.640Z,56.10
2018-01-21T03:01:51.132Z,56.80
2018-01-21T03:04:18.554Z,57.40
2018-01-21T03:06:46.113Z,61.97
2018-01-21T03:09:13.612Z,60.80
2018-01-21T03:11:41.036Z,57.07
2018-01-21T03:14:08.587Z,61.60
2018-01-21T03:16:36.146Z,63.93
2018-01-21T03:19:03.640Z,56.00
2018-01-21T03:21:31.095Z,55.37
2018-01-21T03:23:58.621Z,57.63
2018-01-21T03:26:26.179Z,60.63
2018-01-21T03:28:53.674Z,54.53
2018-01-21T03:31:21.196Z,62.53
2018-01-21T03:33:48.758Z,61.40
2018-01-21T03:36:16.315Z,60.67
2018-01-21T03:38:43.874Z,59.27
2018-01-21T03:41:11.367Z,62.10
2018-01-21T03:43:38.889Z,67.63
2018-01-21T03:46:06.449Z,57.83
2018-01-21T03:48:34.009Z,60.30
2018-01-21T03:51:01.569Z,58.97
2018-01-21T03:53:29.130Z,54.27
2018-01-21T03:55:56.686Z,57.20
2018-01-21T03:58:24.246Z,54.83
2018-01-21T04:00:51.806Z,58.00
2018-01-21T04:03:19.365Z,59.60
2018-01-21T04:05:46.925Z,57.60
2018-01-21T04:08:14.484Z,57.93
2018-01-21T04:10:42.043Z,61.90
2018-01-21T04:13:09.654Z,57.47
2018-01-21T04:15:37.264Z,63.03
2018-01-21T04:18:04.758Z,65.43
2018-01-21T04:20:32.281Z,53.13
2018-01-21T04:22:59.841Z,58.83
2018-01-21T04:25:27.336Z,63.93
2018-01-21T04:27:54.740Z,60.37
2018-01-21T04:30:22.314Z,59.13
2018-01-21T04:32:49.873Z,60.00
2018-01-21T04:35:17.434Z,58.80
2018-01-21T04:37:48.680Z,58.20
2018-01-21T04:40:16.087Z,63.27
2018-01-21T04:42:43.732Z,59.63
2018-01-21T04:45:11.193Z,61.37
2018-01-21T04:47:38.711Z,64.10
2018-01-21T04:50:06.217Z,67.17
2018-01-21T04:52:33.830Z,66.70
2018-01-21T04:55:01.288Z,67.73
2018-01-21T04:57:28.744Z,59.87
2018-01-21T04:59:56.239Z,67.33
2018-01-21T05:02:23.761Z,55.47
2018-01-21T05:04:51.320Z,56.33
2018-01-21T05:07:18.780Z,57.67
2018-01-21T05:09:46.273Z,66.37
2018-01-21T05:12:13.793Z,61.10
2018-01-21T05:14:41.287Z,53.93
2018-01-21T05:17:08.811Z,51.30
2018-01-21T05:19:36.303Z,52.63
2018-01-21T05:22:03.928Z,54.03
2018-01-21T05:24:31.489Z,56.93
2018-01-21T05:26:59.047Z,52.80
2018-01-21T05:29:26.608Z,54.13
2018-01-21T05:31:54.577Z,52.47
2018-01-21T05:34:22.136Z,46.27
2018-01-21T05:36:49.695Z,48.07
2018-01-21T05:39:17.256Z,51.17
2018-01-21T05:41:44.814Z,50.93
2018-01-21T05:44:12.320Z,48.00
2018-01-21T05:46:39.933Z,49.93
2018-01-21T05:49:07.405Z,50.87
2018-01-21T05:51:34.887Z,53.07
2018-01-21T05:54:02.344Z,53.73
2018-01-21T05:56:29.969Z,52.73
2018-01-21T05:58:57.529Z,53.93
2018-01-21T06:01:25.088Z,56.23
2018-01-21T06:03:52.644Z,51.90
2018-01-21T06:06:20.104Z,49.80
2018-01-21T06:08:47.597Z,50.33
2018-01-21T06:11:15.118Z,57.10
2018-01-21T06:13:42.677Z,56.80
2018-01-21T06:16:10.237Z,59.20
2018-01-21T06:18:37.796Z,53.80
2018-01-21T06:21:05.356Z,58.97
2018-01-21T06:23:32.852Z,63.73
2018-01-21T06:26:00.304Z,61.37
2018-01-21T06:28:27.764Z,65.13
2018-01-21T06:30:55.289Z,66.70
2018-01-21T06:33:22.847Z,62.83
2018-01-21T06:35:50.614Z,66.03
2018-01-21T06:38:18.173Z,57.83
2018-01-21T06:40:45.732Z,67.70
2018-01-21T06:43:13.290Z,65.40
2018-01-21T06:45:40.899Z,59.40
2018-01-21T06:48:08.410Z,57.60
2018-01-21T06:50:36.946Z,62.50
2018-01-21T06:53:04.376Z,62.60
2018-01-21T06:55:32.109Z,63.87
2018-01-21T06:57:59.566Z,59.13
2018-01-21T07:00:27.125Z,58.13
2018-01-21T07:02:54.685Z,53.83
2018-01-21T07:05:22.113Z,65.93
2018-01-21T07:07:49.619Z,56.80
2018-01-21T07:10:17.248Z,55.33
2018-01-21T07:12:44.820Z,59.23
2018-01-21T07:15:12.379Z,54.07
2018-01-21T07:17:39.874Z,49.93
2018-01-21T07:20:07.399Z,57.53
2018-01-21T07:22:34.956Z,61.93
2018-01-21T07:25:02.670Z,86.63
2018-01-21T07:27:30.177Z,59.57
2018-01-21T07:29:57.640Z,71.83
2018-01-21T07:32:25.091Z,62.10
2018-01-21T07:34:52.651Z,53.97
2018-01-21T07:37:20.209Z,56.13
2018-01-21T07:39:47.769Z,69.37
2018-01-21T07:42:15.354Z,57.10
2018-01-21T07:44:43.810Z,58.03
2018-01-21T07:47:11.369Z,59.17
2018-01-21T07:49:39.145Z,56.63
2018-01-21T07:52:06.591Z,56.70
2018-01-21T07:54:34.150Z,61.13
2018-01-21T07:57:01.915Z,53.97
2018-01-21T07:59:29.419Z,52.53
2018-01-21T08:01:56.837Z,53.77
2018-01-21T08:04:24.900Z,55.40
2018-01-21T08:06:52.357Z,61.43
2018-01-21T08:09:19.814Z,61.00
2018-01-21T08:11:47.374Z,57.63
2018-01-21T08:14:14.933Z,56.47
2018-01-21T08:16:42.492Z,49.30
2018-01-21T08:19:10.052Z,52.97
2018-01-21T08:21:37.473Z,50.50
2018-01-21T08:24:04.970Z,41.87
2018-01-21T08:26:32.462Z,51.20
2018-01-21T08:28:59.982Z,52.87
2018-01-21T08:31:27.450Z,47.60
2018-01-21T08:34:00.630Z,48.20
2018-01-21T08:36:34.064Z,53.27
2018-01-21T08:39:07.124Z,49.80
2018-01-21T08:41:53.311Z,52.90
2018-01-21T08:44:20.749Z,46.00
2018-01-21T08:46:48.329Z,45.93
2018-01-21T08:49:15.888Z,45.87
2018-01-21T08:51:43.448Z,51.90
2018-01-21T08:54:11.007Z,49.90
2018-01-21T08:56:38.414Z,48.47
2018-01-21T08:59:06.146Z,49.03
2018-01-21T09:01:33.691Z,50.23
2018-01-21T09:04:01.244Z,51.00
2018-01-21T09:06:29.008Z,52.53
2018-01-21T09:08:56.570Z,48.70
2018-01-21T09:11:24.128Z,47.87
2018-01-21T09:13:51.576Z,47.43
2018-01-21T09:16:19.143Z,48.27
2018-01-21T09:18:46.652Z,48.47
2018-01-21T09:21:14.161Z,47.00
2018-01-21T09:23:41.822Z,53.13
2018-01-21T09:26:09.332Z,51.90
2018-01-21T09:28:36.783Z,48.10
2018-01-21T09:31:04.398Z,47.83
2018-01-21T09:33:31.957Z,52.23
2018-01-21T09:35:59.517Z,44.70
2018-01-21T09:38:26.951Z,50.33
2018-01-21T09:40:54.534Z,53.43
2018-01-21T09:43:22.095Z,51.80
2018-01-21T09:45:49.552Z,46.67
2018-01-21T09:48:17.025Z,48.30
2018-01-21T09:50:44.466Z,49.77
2018-01-21T09:53:11.956Z,49.70
2018-01-21T09:55:39.483Z,50.37
2018-01-21T09:58:06.976Z,49.93
2018-01-21T10:00:34.431Z,47.60
2018-01-21T10:03:01.888Z,49.33
2018-01-21T10:05:29.345Z,49.13
2018-01-21T10:07:56.746Z,49.90
2018-01-21T10:10:24.326Z,47.17
2018-01-21T10:12:51.887Z,46.50
2018-01-21T10:15:19.485Z,48.50
2018-01-21T10:17:47.059Z,51.10
2018-01-21T10:20:14.667Z,50.50
2018-01-21T10:22:42.328Z,50.90
2018-01-21T10:25:09.887Z,51.37
2018-01-21T10:27:37.651Z,47.33
2018-01-21T10:30:05.215Z,49.40
2018-01-21T10:32:32.772Z,46.70
2018-01-21T10:35:00.260Z,52.07
2018-01-21T10:37:28.025Z,52.73
2018-01-21T10:39:55.569Z,51.80
2018-01-21T10:42:23.110Z,49.00
2018-01-21T10:44:50.606Z,53.93
2018-01-21T10:47:18.254Z,51.30
2018-01-21T10:49:45.716Z,49.47
2018-01-21T10:52:13.245Z,54.03
2018-01-21T10:54:40.907Z,49.57
2018-01-21T10:57:08.466Z,52.30
2018-01-21T10:59:36.039Z,48.87
2018-01-21T11:02:03.586Z,56.60
2018-01-21T11:04:31.092Z,57.97
2018-01-21T11:06:58.739Z,53.97
2018-01-21T11:09:26.264Z,50.80
2018-01-21T11:11:53.860Z,54.13
2018-01-21T11:14:21.485Z,55.77
2018-01-21T11:16:48.981Z,63.43
2018-01-21T11:19:16.502Z,59.17
2018-01-21T11:21:44.163Z,64.20
2018-01-21T11:24:11.722Z,52.10
2018-01-21T11:26:39.282Z,50.10
2018-01-21T11:29:06.841Z,50.90
2018-01-21T11:31:34.401Z,51.47
2018-01-21T11:34:01.858Z,54.93
2018-01-21T11:36:29.316Z,58.37
2018-01-21T11:38:56.874Z,62.90
2018-01-21T11:41:24.433Z,48.40
2018-01-21T11:43:52.340Z,57.00
2018-01-21T11:46:19.803Z,59.63
2018-01-21T11:48:47.419Z,58.20
2018-01-21T11:51:15.029Z,51.63
2018-01-21T11:53:42.538Z,59.60
2018-01-21T11:56:10.100Z,50.93
2018-01-21T11:58:37.567Z,55.37
2018-01-21T12:01:04.972Z,57.43
2018-01-21T12:03:32.377Z,48.63
2018-01-21T12:05:59.929Z,60.33
2018-01-21T12:08:27.485Z,54.97
2018-01-21T12:10:55.052Z,51.00
2018-01-21T12:13:22.816Z,54.47
2018-01-21T12:15:50.377Z,55.73
2018-01-21T12:18:17.927Z,56.97
2018-01-21T12:20:45.385Z,58.50
2018-01-21T12:23:12.948Z,55.40
2018-01-21T12:25:40.694Z,56.87
2018-01-21T12:28:08.213Z,61.00
2018-01-21T12:30:35.691Z,58.00
2018-01-21T12:33:03.292Z,51.60
2018-01-21T12:35:30.851Z,48.67
2018-01-21T12:37:58.389Z,53.03
2018-01-21T12:40:25.967Z,52.87
2018-01-21T12:42:53.530Z,53.03
2018-01-21T12:45:21.186Z,51.60
2018-01-21T12:47:48.743Z,60.73
2018-01-21T12:50:16.305Z,59.77
2018-01-21T12:52:44.180Z,58.03
2018-01-21T12:55:11.668Z,65.27
2018-01-21T12:57:39.188Z,57.20
2018-01-21T13:00:06.744Z,53.50
2018-01-21T13:02:34.309Z,54.23
2018-01-21T13:05:01.810Z,60.30
2018-01-21T13:07:29.430Z,58.37
2018-01-21T13:09:56.983Z,60.77
2018-01-21T13:12:24.542Z,52.03
2018-01-21T13:14:52.108Z,56.83
2018-01-21T13:17:19.661Z,57.60
2018-01-21T13:19:47.339Z,56.87
2018-01-21T13:22:15.088Z,56.40
2018-01-21T13:24:42.592Z,52.83
2018-01-21T13:27:10.210Z,50.67
2018-01-21T13:29:37.904Z,55.20
2018-01-21T13:32:05.435Z,55.07
2018-01-21T13:34:32.928Z,53.17
2018-01-21T13:37:00.451Z,53.67
2018-01-21T13:39:27.939Z,57.53
2018-01-21T13:41:55.403Z,55.17
2018-01-21T13:44:22.955Z,53.10
2018-01-21T13:46:50.476Z,51.90
2018-01-21T13:49:17.909Z,52.57
2018-01-21T13:51:45.492Z,48.57
2018-01-21T13:54:12.951Z,47.43
2018-01-21T13:56:40.387Z,47.13
2018-01-21T13:59:07.844Z,50.30
2018-01-21T14:01:35.437Z,49.00
2018-01-21T14:04:02.937Z,52.50
2018-01-21T14:06:30.542Z,44.10
2018-01-21T14:08:58.202Z,53.40
2018-01-21T14:11:25.608Z,46.20
2018-01-21T14:13:53.013Z,46.70
2018-01-21T14:16:20.575Z,51.33
2018-01-21T14:18:48.133Z,50.60
2018-01-21T14:21:15.693Z,51.60
2018-01-21T14:23:43.188Z,49.60
2018-01-21T14:26:10.715Z,51.00
2018-01-21T14:28:38.167Z,45.37
2018-01-21T14:31:05.624Z,46.10
2018-01-21T14:33:33.185Z,43.90
2018-01-21T14:36:00.686Z,55.03
2018-01-21T14:38:28.133Z,45.63
2018-01-21T14:40:55.861Z,57.73
2018-01-21T14:43:23.422Z,48.90
2018-01-21T14:45:50.983Z,48.30
2018-01-21T14:48:18.643Z,48.10
2018-01-21T14:50:46.143Z,52.03
2018-01-21T14:53:13.658Z,48.50
2018-01-21T14:55:41.407Z,48.67
2018-01-21T14:58:08.918Z,49.47
2018-01-21T15:00:36.442Z,49.50
2018-01-21T15:03:03.904Z,52.90
2018-01-21T15:05:31.404Z,50.67
2018-01-21T15:07:58.848Z,46.07
2018-01-21T15:10:26.472Z,50.27
2018-01-21T15:12:54.135Z,46.67
2018-01-21T15:15:21.693Z,48.50
2018-01-21T15:17:49.253Z,54.00
2018-01-21T15:20:16.749Z,55.33
2018-01-21T15:22:44.680Z,52.00
2018-01-21T15:25:12.238Z,53.87
2018-01-21T15:27:39.798Z,57.60
2018-01-21T15:30:07.358Z,51.07
2018-01-21T15:32:34.916Z,52.17
2018-01-21T15:35:02.478Z,47.83
2018-01-21T15:37:30.036Z,55.90
2018-01-21T15:39:57.533Z,54.37
2018-01-21T15:42:25.051Z,55.90
2018-01-21T15:44:52.612Z,61.90
2018-01-21T15:47:20.273Z,55.00
2018-01-21T15:49:47.837Z,53.47
2018-01-21T15:52:15.275Z,58.97
2018-01-21T15:54:42.748Z,49.47
2018-01-21T15:57:10.203Z,50.87
2018-01-21T15:59:37.716Z,50.10
2018-01-21T16:02:05.270Z,54.10
2018-01-21T16:04:32.780Z,49.93
2018-01-21T16:07:00.287Z,48.67
2018-01-21T16:09:27.899Z,46.53
2018-01-21T16:11:55.458Z,47.07
2018-01-21T16:14:23.017Z,48.37
2018-01-21T16:16:50.680Z,56.27
2018-01-21T16:19:18.103Z,47.80
2018-01-21T16:21:45.542Z,55.27
2018-01-21T16:24:12.994Z,53.50
2018-01-21T16:26:40.551Z,51.10
2018-01-21T16:29:08.066Z,47.60
2018-01-21T16:31:35.476Z,47.80
2018-01-21T16:34:03.021Z,46.13
2018-01-21T16:36:30.540Z,53.07
2018-01-21T16:38:58.060Z,46.73
2018-01-21T16:41:25.661Z,50.97
2018-01-21T16:43:53.157Z,46.40
2018-01-21T16:46:20.676Z,46.30
2018-01-21T16:48:48.242Z,52.60
2018-01-21T16:51:15.794Z,58.80
2018-01-21T16:53:43.288Z,54.97
2018-01-21T16:56:10.811Z,55.73
2018-01-21T16:58:38.373Z,53.53
2018-01-21T17:01:05.930Z,56.23
2018-01-21T17:03:33.489Z,53.37
2018-01-21T17:06:00.912Z,53.60
2018-01-21T17:08:28.513Z,54.10
2018-01-21T17:10:56.065Z,55.70
2018-01-21T17:13:23.625Z,59.93
2018-01-21T17:15:51.120Z,53.80
2018-01-21T17:18:18.576Z,66.90
2018-01-21T17:20:46.098Z,57.27
2018-01-21T17:23:13.592Z,61.40
2018-01-21T17:25:41.048Z,58.53
2018-01-21T17:28:08.508Z,54.03
2018-01-21T17:30:35.970Z,65.30
2018-01-21T17:33:03.486Z,62.93
2018-01-21T17:35:31.045Z,66.00
2018-01-21T17:37:58.541Z,67.43
2018-01-21T17:40:26.061Z,67.37
2018-01-21T17:42:53.621Z,66.00
2018-01-21T17:45:21.180Z,63.27
2018-01-21T17:47:48.623Z,66.13
2018-01-21T17:50:16.257Z,74.70
2018-01-21T17:52:43.803Z,70.63
2018-01-21T17:55:12.307Z,68.50
2018-01-21T17:57:40.949Z,75.53
2018-01-21T18:00:08.501Z,74.13
2018-01-21T18:02:35.993Z,69.00
2018-01-21T18:05:03.410Z,62.27
2018-01-21T18:07:30.956Z,69.13
2018-01-21T18:09:58.410Z,63.23
2018-01-21T18:12:25.972Z,65.23
2018-01-21T18:14:53.532Z,68.37
2018-01-21T18:17:21.047Z,60.27
2018-01-21T18:19:48.513Z,62.07
2018-01-21T18:22:16.108Z,62.23
2018-01-21T18:24:43.704Z,63.30
2018-01-21T18:27:11.276Z,65.43
2018-01-21T18:29:38.786Z,64.73
2018-01-21T18:32:06.243Z,55.70
2018-01-21T18:34:33.803Z,60.10
2018-01-21T18:37:01.569Z,57.03
2018-01-21T18:39:29.023Z,63.80
2018-01-21T18:41:56.600Z,57.63
2018-01-21T18:44:24.145Z,61.17
2018-01-21T18:46:51.708Z,58.30
2018-01-21T18:49:19.405Z,53.73
2018-01-21T18:51:46.926Z,56.33
2018-01-21T18:54:14.484Z,58.50
2018-01-21T18:56:41.939Z,59.97
2018-01-21T18:59:09.499Z,54.50
2018-01-21T19:01:37.059Z,55.13
2018-01-21T19:04:04.576Z,57.53
2018-01-21T19:06:32.112Z,57.53
2018-01-21T19:08:59.568Z,52.97
2018-01-21T19:11:27.033Z,58.83
2018-01-21T19:13:54.651Z,64.53
2018-01-21T19:16:22.157Z,62.57
2018-01-21T19:18:49.792Z,59.97
2018-01-21T19:21:17.331Z,65.90
2018-01-21T19:23:44.788Z,73.93
2018-01-21T19:26:12.346Z,71.23
2018-01-21T19:28:39.797Z,71.73
2018-01-21T19:31:07.362Z,76.37
2018-01-21T19:33:34.922Z,69.87
2018-01-21T19:36:02.583Z,68.43
2018-01-21T19:38:46.937Z,75.40
2018-01-21T19:41:17.366Z,63.80
2018-01-21T19:43:50.622Z,60.77
2018-01-21T19:46:18.217Z,76.37
2018-01-21T19:48:45.776Z,64.63
2018-01-21T19:51:13.272Z,74.17
2018-01-21T19:53:40.943Z,65.90
2018-01-21T19:56:08.455Z,68.50
2018-01-21T19:58:39.394Z,69.77
2018-01-21T20:01:06.954Z,72.67
2018-01-21T20:03:34.512Z,70.63
2018-01-21T20:06:02.624Z,69.80
2018-01-21T20:08:30.191Z,69.13
2018-01-21T20:10:57.708Z,77.87
2018-01-21T20:13:25.276Z,68.43
2018-01-21T20:15:52.924Z,57.73
2018-01-21T20:18:20.482Z,50.60
2018-01-21T20:20:48.246Z,51.07
2018-01-21T20:23:15.807Z,45.83
2018-01-21T20:25:43.369Z,54.93
2018-01-21T20:28:10.925Z,55.93
2018-01-21T20:30:38.485Z,67.07
2018-01-21T20:33:05.980Z,57.70
2018-01-21T20:35:33.609Z,63.80
2018-01-21T20:38:01.163Z,54.47
2018-01-21T20:40:28.722Z,51.30
2018-01-21T20:42:56.283Z,42.53
2018-01-21T20:45:24.356Z,53.60
2018-01-21T20:47:52.119Z,48.10
2018-01-21T20:50:19.677Z,52.53
2018-01-21T20:52:47.236Z,46.07
2018-01-21T20:55:14.795Z,51.10
2018-01-21T20:57:42.357Z,49.60
2018-01-21T21:00:10.071Z,49.00
2018-01-21T21:02:37.679Z,45.00
2018-01-21T21:05:05.341Z,47.03
2018-01-21T21:07:32.901Z,42.40
2018-01-21T21:10:00.460Z,45.73
2018-01-21T21:12:27.956Z,44.27
2018-01-21T21:14:55.524Z,47.80
2018-01-21T21:17:22.998Z,38.97
2018-01-21T21:19:50.423Z,47.93
2018-01-21T21:22:17.950Z,37.77
2018-01-21T21:24:45.509Z,45.10
2018-01-21T21:27:13.178Z,46.83
2018-01-21T21:29:40.729Z,42.20
2018-01-21T21:32:08.227Z,43.00
2018-01-21T21:34:35.852Z,39.57
2018-01-21T21:37:03.409Z,43.40
2018-01-21T21:39:30.830Z,36.77
2018-01-21T21:41:58.296Z,45.47
2018-01-21T21:44:25.780Z,42.90
2018-01-21T21:46:53.341Z,45.93
2018-01-21T21:49:21.059Z,50.30
2018-01-21T21:51:48.600Z,47.27
2018-01-21T21:54:16.059Z,54.70
2018-01-21T21:56:43.576Z,55.37
2018-01-21T21:59:11.092Z,53.37
2018-01-21T22:01:38.593Z,62.23
2018-01-21T22:04:06.151Z,59.17
2018-01-21T22:06:33.712Z,56.17
2018-01-21T22:09:01.128Z,58.80
2018-01-21T22:11:28.831Z,54.63
2018-01-21T22:13:56.391Z,66.07
2018-01-21T22:16:24.666Z,62.00
2018-01-21T22:18:52.226Z,60.70
2018-01-21T22:21:19.785Z,54.07
2018-01-21T22:23:47.345Z,58.23
2018-01-21T22:26:14.904Z,60.87
2018-01-21T22:28:42.463Z,69.43
2018-01-21T22:31:10.167Z,66.83
2018-01-21T22:33:37.684Z,52.27
2018-01-21T22:36:05.244Z,56.90
2018-01-21T22:38:32.700Z,54.33
2018-01-21T22:41:00.260Z,52.93
2018-01-21T22:43:27.717Z,46.00
2018-01-21T22:45:55.210Z,57.90
2018-01-21T22:48:22.616Z,49.40
2018-01-21T22:50:50.193Z,56.43
2018-01-21T22:53:17.651Z,52.50
2018-01-21T22:55:45.208Z,47.40
2018-01-21T22:58:12.664Z,54.67
2018-01-21T23:00:40.160Z,54.23
2018-01-21T23:03:07.718Z,52.63
2018-01-21T23:05:35.239Z,51.77
2018-01-21T23:08:02.699Z,54.50
2018-01-21T23:10:30.125Z,55.23
2018-01-21T23:12:57.714Z,49.13
2018-01-21T23:15:25.274Z,52.53
2018-01-21T23:17:52.833Z,61.43
2018-01-21T23:20:26.536Z,52.07
2018-01-21T23:22:54.096Z,50.23
2018-01-21T23:25:21.655Z,45.27
2018-01-21T23:27:49.214Z,44.07
2018-01-21T23:30:16.707Z,53.50
2018-01-21T23:32:44.255Z,49.80
2018-01-21T23:35:11.791Z,44.77
2018-01-21T23:37:39.285Z,47.70
2018-01-21T23:40:06.910Z,50.17
2018-01-21T23:42:34.469Z,43.37
2018-01-21T23:45:02.029Z,54.87
2018-01-21T23:47:29.440Z,50.70
2018-01-21T23:49:57.045Z,45.80
2018-01-21T23:52:24.541Z,54.07
2018-01-21T23:54:51.999Z,55.53
2018-01-21T23:57:19.518Z,48.53
2018-01-21T23:59:47.012Z,48.77
